Zottegem, Belgium
Current Conditions -  °F | °C
As of 9:25 PM on Monday 22 Dec 2014 (Local Time) from EBCV Reporting Station
Broken Clouds Broken Clouds  
Wind Chill: 52°   Ceiling: 2300
Heat Index: 52°   Visibility: 6mi
Dew Point: 48°   Wind: 20mph
Humidity: 88%   Direction: 230°SW
Pressure: 30.21"   Gusts: NA
Location:  50.87°N, 3.81°E
Report Text: EBCV 222025Z AUTO 23017KT 9999 FEW009/// SCT017/// BKN023/// 11/09 Q1023 WHT
Loading
Personal Weather Stations






























Interactive Weather Map New forecast layout! Learn more

10-Day Weather Forecast

Advertisements
Track Severe Weather on mobile